Terminal Aerodrome Forecast
Issued by NWS

Home | Current Version | Previous Version | Text Only | Print | Product List | Glossary On
Versions: 1 2 3 4 5 6 7 8 9 10 11 12 13 14 15 16 17 18 19 20 21 22 23 24
000
FTAK31 PAJN 011910 AAA
TAFAWG
TAF AMD
PAWG 011910Z 0119/0218 VRB03KT P6SM BKN020 BKN040
      TEMPO 0119/0121 4SM BR FEW003 SCT004 BKN020
     FM012100 32003KT P6SM SCT035 OVC050
     FM020400 18003KT P6SM FEW010 BKN050 BKN100
     FM021100 15002KT 3SM BR VCFG SCT003 BKN050
      TEMPO 0212/0215 1SM BR BKN003 BKN050=

USA.gov is the U.S. government's official web portal to all federal, state and local government web resources and services.